Pinehurst, Texas
Current Conditions -  °F | °C
As of 10:53 AM on Friday 24 Oct 2014 (Local Time) from KDWH Reporting Station
Clear Clear  
Wind Chill: 68°   Ceiling: Unl
Heat Index: 68°   Visibility: 10mi
Dew Point: 53°   Wind: 3mph
Humidity: 59%   Direction: NA
Pressure: 30.18"   Gusts: NA
Location:  30.19°N, 95.71°W
Report Text: KDWH 241553Z VRB03KT 10SM CLR 20/12 A3018 RMK AO2 SLP219 T02000117
Loading
Personal Weather Stations






























Interactive Weather Map
Tropical Storm Tracking
New forecast layout! Learn more

10-Day Weather Forecast

Advertisements
Track Severe Weather on mobile